Participated 6 times
Between 2009 and 2014
Sébastien Minard, France
Tour de France 2026 starts from Barcelona, Spain in

Stats and Facts from
Tour de France.

2026   2025   2024   2023  2022  2021  2020  2019   2018  2017   2016   2015  2014  2013   2012   2011  2010   2009   2008   2007   2006   2005   2004   2003   2002   2001   2000   1999   1998   1997  1996   1995   1994   1993   1992  1991   1990   1989   1988   1987   1986   1985   1984   1983  1982  1981   1980   1979  1978  1977   1976  1975  1974  1973   1972   1971   1970  1969   1968   1967   1966   1965  1964  1963   1962   1961   1960   1959   1958   1957  1956   1955   1954   1953   1952  1951  1950  1949   1948  1947  1939   1938   1937   1936   1935   1934   1933  1932   1931   1930  1929   1928   1927   1926  1925  1924  1923   1922   1921   1920   1919  1914   1913   1912   1911   1910  1909   1908   1907   1906  1905  1904   1903 

Tourstats
Sitemap

After stage 21 - 2025:
 16451 starters.
  5463 different riders.
  689 teams.
  2398 stages.
  470 restdays.
  466506.50 km.
  5925 abandoned riders.

Click map for 2006 route.
Facts from Tour de France 2006
  |   Stages.  |   Stage winners.  |   Days in jerseys.  |   Teams.  |   All riders.  |   All riders by age.  |   All riders from.  |  

  |   Rookies.  |   Withdrawls.  |   Average speed.  |   GC.  |   Polka  |   Green  |   White  |   Summits. (In tour)  |   Miscellaneous.  |  

Stage 15 on July 18th. 2006
Pick a stage:  Pro  1  2  3  4  5  6  7  8  9  10  11  12  13  14  15  16  17  18  19  20  

After stage 15:    Óscar Pereiro  
  GapAlpe-d´Huez | Dist: 187.00km. | Winner: Fränk Schleck

Podium
HC  Col de l'Izoard Stefano Garzelliafter86.00 km.

2  Col du Lautaret David De La Fuenteafter134.00 km.

HC  Alpe d'Huez Fränk Schleckafter187.00 km.


Average speed for all riders in stage:  36,176 km./hr.

1
 Fränk Schleck  CSC04h 52' 22"=38,376  km/h

2
 Damiano Cunego  Lampre-Fondital04h 52' 33"+  00:00:11 =38,352  km/h

3
 Stefano Garzelli  Liquigas04h 53' 32"+  00:01:10 =38,224  km/h

4  Floyd Landis  Phonak Hearing Systems04h 53' 32"+  00:01:10 =38,224  km/h

5  Andréas  Klöden  T-Mobile04h 53' 32"+  00:01:10 =38,224  km/h

6  Rubén Lobato  Saunier Duval-Prodir04h 53' 36"+  00:01:14 =38,215  km/h

7  Sylvain Chavanel  Cofidis Credit Par Telephone04h 53' 40"+  00:01:18 =38,207  km/h

8  Eddy Mazzoleni  T-Mobile04h 53' 50"+  00:01:28 =38,185  km/h

9  Carlos Sastre  CSC04h 53' 57"+  00:01:35 =38,170  km/h

10  Levi Leipheimer  Gerolsteiner04h 54' 11"+  00:01:49 =38,139  km/h

11  Denis Menchov  Rabobank04h 54' 43"+  00:02:21 =38,070  km/h

12  Michael Rasmussen  Rabobank04h 54' 43"+  00:02:21 =38,070  km/h

13  Pietro Caucchioli  Credit Agricole04h 54' 43"+  00:02:21 =38,070  km/h

14  Óscar Pereiro  Illes Balears-Caisse d Epargne04h 55' 11"+  00:02:49 =38,010  km/h

15  Michael Rogers  T-Mobile04h 55' 11"+  00:02:49 =38,010  km/h

16  Cadel Evans  Davitamon-Lotto04h 55' 11"+  00:02:49 =38,010  km/h

17  Iván Parra  Cofidis Credit Par Telephone04h 55' 11"+  00:02:49 =38,010  km/h

18  Axel Merckx  Phonak Hearing Systems04h 55' 18"+  00:02:56 =37,995  km/h

19  Cyril Dessel  AG2R-Decathlon04h 55' 26"+  00:03:04 =37,978  km/h

20  Haimar  Zubeldía  Euskaltel-Euskadi04h 55' 26"+  00:03:04 =37,978  km/h

21  Mikel Astarloza  AG2R-Decathlon04h 55' 29"+  00:03:07 =37,972  km/h

22  David Arroyo  Illes Balears-Caisse d Epargne04h 55' 40"+  00:03:18 =37,948  km/h

23  Gilberto Simoni  Saunier Duval-Prodir04h 55' 46"+  00:03:24 =37,935  km/h

24  David De La Fuente  Saunier Duval-Prodir04h 55' 58"+  00:03:36 =37,910  km/h

25  Christophe Moreau  AG2R-Decathlon04h 56' 10"+  00:03:48 =37,884  km/h

26  Tadej Valjavec  Lampre-Fondital04h 56' 10"+  00:03:48 =37,884  km/h

27  Jose Luis Arrieta  AG2R-Decathlon04h 56' 33"+  00:04:11 =37,835  km/h

28  Iñigo Landaluze  Euskaltel-Euskadi04h 56' 53"+  00:04:31 =37,793  km/h

29  Yaroslav Popovych  Discovery Channel04h 56' 53"+  00:04:31 =37,793  km/h

30  George Hincapie  Discovery Channel04h 56' 53"+  00:04:31 =37,793  km/h

31  Michael Boogerd  Rabobank04h 56' 53"+  00:04:31 =37,793  km/h

32  Marzio Bruseghin  Lampre-Fondital04h 57' 37"+  00:05:15 =37,700  km/h

33  Vladimir Karpets  Illes Balears-Caisse d Epargne04h 57' 38"+  00:05:16 =37,697  km/h

34  Georg Totschnig  Gerolsteiner04h 57' 38"+  00:05:16 =37,697  km/h

35  Xabier Zandio  Illes Balears-Caisse d Epargne04h 57' 38"+  00:05:16 =37,697  km/h

36  Laurent Lefèvre  Bouygues Telecom04h 57' 38"+  00:05:16 =37,697  km/h

37  Markus Fothen  Gerolsteiner04h 57' 38"+  00:05:16 =37,697  km/h

38  Stéphane Goubert  AG2R-Decathlon04h 57' 38"+  00:05:16 =37,697  km/h

39  Iker Camaño  Euskaltel-Euskadi04h 57' 38"+  00:05:16 =37,697  km/h

40  Christophe Brandt  Davitamon-Lotto04h 57' 38"+  00:05:16 =37,697  km/h

41  Juan Miguel Mercado  Agritubel04h 57' 38"+  00:05:16 =37,697  km/h

42  Christian Vandevelde  CSC04h 57' 38"+  00:05:16 =37,697  km/h

43  Koos Moerenhout  Phonak Hearing Systems04h 57' 38"+  00:05:16 =37,697  km/h

44  Benoit Salmon  Agritubel04h 58' 52"+  00:06:30 =37,542  km/h

45  David Moncoutié  Cofidis Credit Par Telephone04h 58' 52"+  00:06:30 =37,542  km/h

46  Francisco Javier Vila  Lampre-Fondital04h 59' 30"+  00:07:08 =37,462  km/h

47  Moisés Dueñas  Agritubel04h 59' 37"+  00:07:15 =37,448  km/h

48  José Azevedo  Discovery Channel04h 59' 37"+  00:07:15 =37,448  km/h

49  Giuseppe Guerini  T-Mobile04h 59' 37"+  00:07:15 =37,448  km/h

50  Alexandre Botcharov  Credit Agricole05h 00' 12"+  00:07:50 =37,375  km/h

51  Christophe Rinero  Saunier Duval-Prodir05h 00' 12"+  00:07:50 =37,375  km/h

52  Sébastien Joly  Francaise Des Jeux05h 00' 13"+  00:07:51 =37,373  km/h

53  José Ángel Gomez  Saunier Duval-Prodir05h 00' 56"+  00:08:34 =37,284  km/h

54  Thomas Löfkvist  Francaise Des Jeux05h 01' 01"+  00:08:39 =37,274  km/h

55  David Millar  Saunier Duval-Prodir05h 01' 28"+  00:09:06 =37,218  km/h

56  Björn Schröder  Milram05h 01' 28"+  00:09:06 =37,218  km/h

57  Alexandre Moos  Phonak Hearing Systems05h 02' 32"+  00:10:10 =37,087  km/h

58  Sylvain Calzati  AG2R-Decathlon05h 03' 14"+  00:10:52 =37,001  km/h

59  Riccardo Riccò  Saunier Duval-Prodir05h 03' 15"+  00:10:53 =36,999  km/h

60  Christopher Horner  Davitamon-Lotto05h 03' 56"+  00:11:34 =36,916  km/h

61  Patrice Halgand  Credit Agricole05h 04' 14"+  00:11:52 =36,880  km/h

62  Patrik Sinkewitz  T-Mobile05h 04' 42"+  00:12:20 =36,823  km/h

63  Bram Tankink  Quick Step-Innergetic05h 04' 48"+  00:12:26 =36,811  km/h

64  Jens Voigt  CSC05h 06' 14"+  00:13:52 =36,639  km/h

65  Sebastian Lang  Gerolsteiner05h 06' 33"+  00:14:11 =36,601  km/h

66  Pavel Padrnos  Discovery Channel05h 08' 18"+  00:15:56 =36,393  km/h

67  Sandy Casar  Francaise Des Jeux05h 08' 18"+  00:15:56 =36,393  km/h

68  Pierrick  Fédrigo  Bouygues Telecom05h 08' 18"+  00:15:56 =36,393  km/h

69  Juan Manuel Garate  Quick Step-Innergetic05h 08' 18"+  00:15:56 =36,393  km/h

70  Viatcheslav Ekimov  Discovery Channel05h 08' 18"+  00:15:56 =36,393  km/h

71  Egoi Martínez  Discovery Channel05h 08' 18"+  00:15:56 =36,393  km/h

72  Johan Vansummeren  Davitamon-Lotto05h 08' 18"+  00:15:56 =36,393  km/h

73  Gorka Verdugo  Euskaltel-Euskadi05h 08' 18"+  00:15:56 =36,393  km/h

74  Samuel Dumoulin  AG2R-Decathlon05h 08' 18"+  00:15:56 =36,393  km/h

75  Manuel Calvente  Agritubel05h 08' 18"+  00:15:56 =36,393  km/h

76  Iñaki Isasi  Euskaltel-Euskadi05h 08' 18"+  00:15:56 =36,393  km/h

77  Matej Mugerli  Liquigas05h 09' 50"+  00:17:28 =36,213  km/h

78  Didier Rous  Bouygues Telecom05h 09' 50"+  00:17:28 =36,213  km/h

79  Anthony Geslin  Bouygues Telecom05h 09' 50"+  00:17:28 =36,213  km/h

80  Anthony Charteau  Credit Agricole05h 09' 50"+  00:17:28 =36,213  km/h

81  Matthias Kessler  T-Mobile05h 10' 50"+  00:18:28 =36,097  km/h

82  Fabian Wegmann  Gerolsteiner05h 10' 50"+  00:18:28 =36,097  km/h

83  Maxim Iglinskiy  Milram05h 11' 44"+  00:19:22 =35,992  km/h

84  Serhiy Honchar  T-Mobile05h 12' 06"+  00:19:44 =35,950  km/h

85  Alessandro Ballan  Lampre-Fondital05h 12' 55"+  00:20:33 =35,856  km/h

86  Cristian Moreni  Cofidis Credit Par Telephone05h 12' 55"+  00:20:33 =35,856  km/h

87  Marco Velo  Milram05h 12' 55"+  00:20:33 =35,856  km/h

88  Paolo Tiralongo  Lampre-Fondital05h 12' 55"+  00:20:33 =35,856  km/h

89  Daniele Righi  Lampre-Fondital05h 12' 55"+  00:20:33 =35,856  km/h

90  Daniele Bennati  Lampre-Fondital05h 12' 55"+  00:20:33 =35,856  km/h

91  Salvatore Commesso  Lampre-Fondital05h 12' 55"+  00:20:33 =35,856  km/h

92  David Zabriskie  CSC05h 13' 17"+  00:20:55 =35,814  km/h

93  Francisco Ventoso  Saunier Duval-Prodir05h 13' 53"+  00:21:31 =35,746  km/h

94  Miguel Angel Martín  Phonak Hearing Systems05h 13' 53"+  00:21:31 =35,746  km/h

95  Nicolas Portal  Illes Balears-Caisse d Epargne05h 13' 58"+  00:21:36 =35,736  km/h

96  Juan Antonio Flecha  Rabobank05h 14' 53"+  00:22:31 =35,632  km/h

97  Pieter Weening  Rabobank05h 14' 53"+  00:22:31 =35,632  km/h

98  José Garcia Acosta  Illes Balears-Caisse d Epargne05h 17' 57"+  00:25:35 =35,289  km/h

99  Luca Paolini  Liquigas05h 20' 23"+  00:28:01 =35,021  km/h

100  Filippo Pozzato  Quick Step-Innergetic05h 22' 36"+  00:30:14 =34,780  km/h

101  Erik Zabel  Milram05h 22' 36"+  00:30:14 =34,780  km/h

102  Simon Gerrans  AG2R-Decathlon05h 22' 36"+  00:30:14 =34,780  km/h

103  Bernhard Eisel  Francaise Des Jeux05h 22' 36"+  00:30:14 =34,780  km/h

104  Christophe Laurent  Agritubel05h 22' 36"+  00:30:14 =34,780  km/h

105  Bert Grabsch  Phonak Hearing Systems05h 22' 36"+  00:30:14 =34,780  km/h

106  Ralf Grabsch  Milram05h 22' 36"+  00:30:14 =34,780  km/h

107  Christian Knees  Milram05h 22' 36"+  00:30:14 =34,780  km/h

108  José Rujano  Quick Step-Innergetic05h 22' 36"+  00:30:14 =34,780  km/h

109  Christophe Mengin  Francaise Des Jeux05h 22' 36"+  00:30:14 =34,780  km/h

110  Jérôme Pineau  Bouygues Telecom05h 22' 36"+  00:30:14 =34,780  km/h

111  Gustav-Erik Larsson  Francaise Des Jeux05h 22' 36"+  00:30:14 =34,780  km/h

112  Matthieu Sprick  Bouygues Telecom05h 22' 36"+  00:30:14 =34,780  km/h

113  Nicolas Jalabert  Phonak Hearing Systems05h 22' 36"+  00:30:14 =34,780  km/h

114  Victor Hugo Peña  Phonak Hearing Systems05h 22' 36"+  00:30:14 =34,780  km/h

115  Stuart O'Grady  CSC05h 22' 36"+  00:30:14 =34,780  km/h

116  Joost Posthuma  Rabobank05h 22' 36"+  00:30:14 =34,780  km/h

117  Florent Brard  Illes Balears-Caisse d Epargne05h 22' 36"+  00:30:14 =34,780  km/h

118  Philippe Gilbert  Francaise Des Jeux05h 22' 36"+  00:30:14 =34,780  km/h

119  Eduardo Gonzalo  Agritubel05h 22' 36"+  00:30:14 =34,780  km/h

120  Robert Hunter  Phonak Hearing Systems05h 22' 36"+  00:30:14 =34,780  km/h

121  Cédric Vasseur  Quick Step-Innergetic05h 22' 36"+  00:30:14 =34,780  km/h

122  Benoit Vaugrenard  Francaise Des Jeux05h 22' 36"+  00:30:14 =34,780  km/h

123  Michael Albasini  Liquigas05h 22' 36"+  00:30:14 =34,780  km/h

124  David Lopez  Euskaltel-Euskadi05h 22' 36"+  00:30:14 =34,780  km/h

125  Bradley Wiggins  Cofidis Credit Par Telephone05h 22' 36"+  00:30:14 =34,780  km/h

126  Matteo Tosatto  Quick Step-Innergetic05h 22' 36"+  00:30:14 =34,780  km/h

127  Unai Etxebarria  Euskaltel-Euskadi05h 22' 36"+  00:30:14 =34,780  km/h

128  Carlos Da Cruz  Francaise Des Jeux05h 22' 36"+  00:30:14 =34,780  km/h

129  Patrick Calcagni  Liquigas05h 22' 36"+  00:30:14 =34,780  km/h

130  Cédric Coutouly  Agritubel05h 22' 36"+  00:30:14 =34,780  km/h

131  Steven de Jongh  Quick Step-Innergetic05h 26' 33"+  00:34:11 =34,359  km/h

132  Robbie McEwen  Davitamon-Lotto05h 26' 33"+  00:34:11 =34,359  km/h

133  Peter Wrolich  Gerolsteiner05h 26' 33"+  00:34:11 =34,359  km/h

134  Kjell Carlström  Liquigas05h 26' 33"+  00:34:11 =34,359  km/h

135  Ronny Scholz  Gerolsteiner05h 26' 33"+  00:34:11 =34,359  km/h

136  Mario Aerts  Davitamon-Lotto05h 26' 33"+  00:34:11 =34,359  km/h

137  Wim Vansevenant  Davitamon-Lotto05h 26' 33"+  00:34:11 =34,359  km/h

138  Gert Steegmans  Davitamon-Lotto05h 26' 33"+  00:34:11 =34,359  km/h

139  Walter Bénéteau  Bouygues Telecom05h 26' 33"+  00:34:11 =34,359  km/h

140  José-Luis Rubiera  Discovery Channel05h 26' 33"+  00:34:11 =34,359  km/h

141  Arnaud Coyot  Cofidis Credit Par Telephone05h 26' 33"+  00:34:11 =34,359  km/h

142  Manuel Quinziato  Liquigas05h 26' 33"+  00:34:11 =34,359  km/h

143  David Kopp  Gerolsteiner05h 26' 33"+  00:34:11 =34,359  km/h

144  Thomas  Voeckler  Bouygues Telecom05h 26' 33"+  00:34:11 =34,359  km/h

145  Aitor Hernández  Euskaltel-Euskadi05h 26' 33"+  00:34:11 =34,359  km/h

146  Thor Hushovd  Credit Agricole05h 27' 22"+  00:35:00 =34,273  km/h

147  Julian Dean  Credit Agricole05h 27' 22"+  00:35:00 =34,273  km/h

148  Stéphane Auge  Cofidis Credit Par Telephone05h 27' 45"+  00:35:23 =34,233  km/h

149  Jimmy Casper  Cofidis Credit Par Telephone05h 27' 52"+  00:35:30 =34,221  km/h

150  Sébastien Hinault  Credit Agricole05h 28' 27"+  00:36:05 =34,160  km/h

151  Christophe Le Mevel  Credit Agricole05h 28' 44"+  00:36:22 =34,131  km/h

152  Óscar Freire  Rabobank05h 28' 44"+  00:36:22 =34,131  km/h


Withdrawls: 4
 RiderTeamReason
49   Beat Zberg GerolsteinerDid not finish
53   Bram de Groot RabobankDid not finish
101   Tom Boonen Quick Step-InnergeticDid not finish
184   Andriy Grivko MilramDid not finish
Todays birthdays.

1869 • Adolphe Dorion
1884 • Achille Germain
1886 • Emile Eigeldinger
1896 • Andre Léger
1907 • Frans Dictus
1921 • Alberto Ghirardi
1934 • Joseph Planckaert
1945 • Leif Mortensen
1952 • Alex Van Linden
1960 • Roberto Bressan
1960 • Bernard Chesneau
1962 • Paul Watson
1963 • Juan Rozas
1965 • Jean-Pierre Heynderickx
1967 • José-Manuel Oliveira
1970 • Wilfried Nelissen
1980 • Nick Nuyens
1996 • Jai Hindley

 

Optimized for Chrome - Edge
and Opera browsers.